Les Cayes, Haiti
Current Conditions -  °F | °C
As of 12:56 PM on Tuesday 21 Oct 2014 (Local Time) from MUGM Reporting Station
Scattered Clouds Scattered Clouds  
Wind Chill: 88°   Ceiling: Unl
Heat Index: 99°   Visibility: 6mi
Dew Point: 76°   Wind: 8mph
Humidity: 67%   Direction: 180°S
Pressure: 29.91"   Gusts: NA
Location:  18.2°N, 73.75°W
Report Text: MUGM 211756Z 18007KT 9999 SCT027 SCT280 31/24 A2991 RMK SLP127 CB DSNT N T03110244 10317 20239 58017
Loading
Personal Weather Stations






























Interactive Weather Map
Tropical Storm Tracking
New forecast layout! Learn more

10-Day Weather Forecast

Advertisements
Track Severe Weather on mobile